Time;durP1;ratioP1;P1;durP2;ratioP2;P2;SDS_P1;SDS_P2;PMS_P1;PMS_P2;Temp;Humidity;BMP_temperature;BMP_pressure;BME280_temperature;BME280_humidity;BME280_pressure;Samples;Min_cycle;Max_cycle;Signal;HPM_P1;HPM_P2
2022/06/13 00:02:08;;;;;;;3.50;2.80;;;23.60;31.00;;;;;;10556432;28;20221;-75
2022/06/13 00:07:12;;;;;;;3.57;3.10;;;23.50;31.80;;;;;;10557719;28;20227;-75
2022/06/13 00:12:15;;;;;;;3.30;2.57;;;23.40;31.90;;;;;;10556894;27;20692;-74
2022/06/13 00:17:19;;;;;;;3.57;2.67;;;23.30;31.80;;;;;;10553182;28;20683;-74
2022/06/13 00:22:23;;;;;;;4.90;3.00;;;23.20;32.90;;;;;;10524590;28;20224;-74
2022/06/13 00:27:26;;;;;;;3.50;2.60;;;23.10;32.60;;;;;;10508370;28;20604;-74
2022/06/13 00:32:31;;;;;;;3.20;2.90;;;22.90;32.80;;;;;;10506678;28;20230;-74
2022/06/13 00:37:34;;;;;;;5.63;2.90;;;22.90;34.10;;;;;;10508734;28;20228;-74
2022/06/13 00:42:38;;;;;;;3.67;2.90;;;22.70;33.20;;;;;;10514584;28;20232;-74
2022/06/13 00:47:45;;;;;;;3.20;2.90;;;22.60;34.00;;;;;;10509332;28;20231;-74
2022/06/13 00:52:52;;;;;;;3.40;3.10;;;22.60;35.40;;;;;;10513018;28;20287;-74
2022/06/13 00:57:56;;;;;;;4.13;3.30;;;22.60;35.60;;;;;;10510348;28;20225;-74
2022/06/13 01:03:02;;;;;;;5.63;3.33;;;22.60;34.40;;;;;;10507701;28;20714;-74
2022/06/13 01:08:09;;;;;;;4.47;3.20;;;22.60;35.90;;;;;;10516788;28;20230;-74
2022/06/13 01:13:13;;;;;;;3.83;3.33;;;22.40;35.90;;;;;;10510354;28;20220;-74
2022/06/13 01:18:32;;;;;;;3.50;3.10;;;22.40;35.20;;;;;;10511896;28;20227;-74
2022/06/13 01:24:05;;;;;;;3.40;3.10;;;22.40;37.40;;;;;;10514186;28;20318;-75
2022/06/13 01:29:42;;;;;;;6.70;3.80;;;22.40;37.50;;;;;;10513143;28;20221;-75
2022/06/13 01:34:58;;;;;;;3.30;3.00;;;22.30;36.60;;;;;;10506112;28;20228;-74
2022/06/13 01:40:13;;;;;;;3.33;2.07;;;22.20;36.40;;;;;;10558906;27;20223;-74
2022/06/13 01:45:24;;;;;;;2.10;2.00;;;22.00;35.80;;;;;;10563227;27;20803;-74
2022/06/13 01:50:32;;;;;;;2.83;2.10;;;21.90;36.50;;;;;;10561564;27;20223;-74
2022/06/13 01:55:44;;;;;;;3.13;2.47;;;21.90;36.60;;;;;;10565559;27;20223;-74
2022/06/13 02:00:56;;;;;;;3.70;2.50;;;21.80;37.50;;;;;;10560637;28;20237;-74
2022/06/13 02:06:06;;;;;;;2.87;2.67;;;21.80;37.50;;;;;;10562644;28;20229;-74
2022/06/13 02:11:14;;;;;;;5.80;2.77;;;21.70;38.00;;;;;;10547556;28;20222;-74
2022/06/13 02:16:21;;;;;;;2.90;2.70;;;21.60;37.90;;;;;;10561905;27;20219;-74
2022/06/13 02:21:33;;;;;;;3.43;2.70;;;21.50;37.90;;;;;;10551491;28;20268;-74
2022/06/13 02:26:41;;;;;;;2.80;2.57;;;21.50;39.00;;;;;;10546237;28;20238;-74
2022/06/13 02:31:47;;;;;;;2.70;2.50;;;21.40;37.70;;;;;;10556942;28;20215;-74
2022/06/13 02:36:58;;;;;;;2.60;2.40;;;21.30;38.00;;;;;;10562993;28;20219;-74
2022/06/13 02:42:06;;;;;;;2.87;2.67;;;21.30;39.30;;;;;;10521511;28;20223;-74
2022/06/13 02:47:15;;;;;;;2.93;2.73;;;21.30;38.70;;;;;;10518989;28;20215;-74
2022/06/13 02:52:27;;;;;;;3.30;3.00;;;21.30;39.40;;;;;;10520561;28;20230;-74
2022/06/13 02:57:43;;;;;;;2.90;2.70;;;21.20;39.00;;;;;;10517536;28;20239;-74
2022/06/13 03:03:06;;;;;;;2.90;2.70;;;21.10;39.80;;;;;;10551945;28;20228;-74
2022/06/13 03:08:19;;;;;;;3.10;2.80;;;21.10;39.70;;;;;;10546118;28;20249;-74
2022/06/13 03:13:33;;;;;;;3.27;2.97;;;21.00;39.90;;;;;;10562214;27;20227;-74
2022/06/13 03:18:47;;;;;;;2.70;2.50;;;20.90;39.60;;;;;;10557539;28;20228;-74
2022/06/13 03:23:57;;;;;;;2.70;2.50;;;20.80;40.10;;;;;;10553109;28;20223;-74
2022/06/13 03:29:05;;;;;;;4.70;2.90;;;20.70;40.30;;;;;;10555205;28;20219;-74
2022/06/13 03:34:11;;;;;;;2.80;2.60;;;20.70;40.50;;;;;;10560284;28;20230;-73
2022/06/13 03:39:21;;;;;;;2.77;2.57;;;20.90;39.80;;;;;;10554958;28;20237;-74
2022/06/13 03:44:28;;;;;;;2.27;2.13;;;20.90;40.40;;;;;;10539728;28;20237;-74
2022/06/13 03:49:36;;;;;;;4.00;2.60;;;21.00;39.60;;;;;;10558325;28;20231;-75
2022/06/13 03:54:44;;;;;;;2.30;2.20;;;21.00;40.10;;;;;;10565207;28;20238;-75
2022/06/13 03:59:53;;;;;;;2.90;2.60;;;21.10;40.00;;;;;;10559905;27;20585;-75
2022/06/13 04:04:57;;;;;;;3.07;2.73;;;21.10;40.00;;;;;;10557462;28;20274;-74
2022/06/13 04:10:05;;;;;;;2.97;2.67;;;21.20;39.10;;;;;;10563734;28;20230;-74
2022/06/13 04:15:24;;;;;;;3.20;2.90;;;21.10;40.30;;;;;;10543344;28;20690;-74
2022/06/13 04:20:34;;;;;;;2.87;2.67;;;21.10;40.80;;;;;;10547567;27;20239;-74
2022/06/13 04:25:46;;;;;;;3.27;3.07;;;21.00;40.90;;;;;;10544182;27;20231;-75
2022/06/13 04:30:52;;;;;;;3.33;3.13;;;21.00;41.30;;;;;;10562598;28;20226;-74
2022/06/13 04:35:56;;;;;;;3.50;3.20;;;20.90;40.40;;;;;;10565284;27;20284;-74
2022/06/13 04:41:04;;;;;;;3.27;2.97;;;20.80;40.10;;;;;;10567248;27;20840;-74
2022/06/13 04:46:11;;;;;;;3.37;2.90;;;20.80;41.60;;;;;;10528355;28;20219;-74
2022/06/13 04:51:18;;;;;;;3.37;3.07;;;20.70;41.10;;;;;;10520792;28;20238;-74
2022/06/13 04:56:23;;;;;;;3.10;2.90;;;20.70;41.50;;;;;;10527093;28;20661;-74
2022/06/13 05:01:29;;;;;;;3.40;3.10;;;20.70;41.70;;;;;;10558646;28;20229;-74
2022/06/13 05:06:36;;;;;;;3.40;3.10;;;20.70;41.80;;;;;;10570719;28;20227;-74
2022/06/13 05:11:48;;;;;;;3.83;3.40;;;20.70;42.50;;;;;;10568865;27;20234;-74
2022/06/13 05:17:12;;;;;;;3.03;2.83;;;20.70;43.20;;;;;;10554794;28;20289;-74
2022/06/13 05:22:35;;;;;;;3.57;3.27;;;20.80;43.40;;;;;;10543828;28;20221;-74
2022/06/13 05:27:40;;;;;;;3.60;3.37;;;20.90;43.50;;;;;;10562910;28;22209;-74
2022/06/13 05:32:44;;;;;;;3.57;3.27;;;21.00;42.40;;;;;;10563914;28;20231;-74
2022/06/13 05:37:48;;;;;;;3.57;3.27;;;21.00;41.80;;;;;;10565684;27;20226;-74
2022/06/13 05:42:53;;;;;;;4.17;3.83;;;21.10;42.00;;;;;;10566422;27;20223;-74
2022/06/13 05:47:56;;;;;;;3.80;3.47;;;21.10;42.80;;;;;;10558730;28;20222;-74
2022/06/13 05:53:00;;;;;;;3.50;3.20;;;21.10;42.10;;;;;;10539347;28;20310;-75
2022/06/13 05:58:04;;;;;;;3.77;3.47;;;21.10;42.30;;;;;;10554867;27;20219;-75
2022/06/13 06:03:08;;;;;;;3.63;3.33;;;21.20;43.00;;;;;;10551451;28;20233;-74
2022/06/13 06:08:17;;;;;;;3.57;3.27;;;21.20;42.40;;;;;;10552925;28;20303;-74
2022/06/13 06:13:23;;;;;;;3.20;3.00;;;21.40;43.80;;;;;;10558631;28;20224;-74
2022/06/13 06:18:28;;;;;;;2.93;2.67;;;21.50;43.30;;;;;;10517184;28;20223;-74
2022/06/13 06:23:31;;;;;;;3.17;2.87;;;21.60;42.70;;;;;;10555033;27;20225;-75
2022/06/13 06:28:36;;;;;;;3.23;2.93;;;21.70;42.20;;;;;;10551176;28;20233;-74
2022/06/13 06:33:39;;;;;;;3.20;2.90;;;21.80;42.70;;;;;;10548431;28;20257;-75
2022/06/13 06:38:43;;;;;;;2.50;2.30;;;21.80;41.60;;;;;;10555276;27;20223;-74
2022/06/13 06:43:48;;;;;;;2.83;2.57;;;21.80;41.20;;;;;;10546207;27;20911;-74
2022/06/13 06:48:52;;;;;;;2.53;2.27;;;21.80;41.80;;;;;;10507686;28;20227;-74
2022/06/13 07:04:38;;;;;;;2.27;2.07;;;22.10;41.30;;;;;;10542526;28;20227;-74
2022/06/13 07:09:41;;;;;;;2.27;2.07;;;22.10;41.10;;;;;;10540790;27;20227;-74
2022/06/13 07:14:46;;;;;;;2.93;2.27;;;22.20;40.80;;;;;;10547945;28;20238;-75
2022/06/13 07:19:49;;;;;;;2.60;2.27;;;22.30;40.60;;;;;;10544757;28;20220;-75
2022/06/13 07:24:52;;;;;;;2.60;1.83;;;22.30;40.30;;;;;;10542750;28;20227;-74
2022/06/13 07:29:57;;;;;;;2.37;2.13;;;22.30;40.30;;;;;;10551508;28;20798;-74
2022/06/13 07:35:01;;;;;;;2.80;2.60;;;22.30;40.30;;;;;;10537478;28;20230;-74
2022/06/13 07:40:05;;;;;;;2.30;2.10;;;22.30;40.20;;;;;;10542704;28;20222;-75
2022/06/13 07:45:14;;;;;;;2.83;2.50;;;22.30;40.30;;;;;;10552495;28;20738;-74
2022/06/13 07:50:40;;;;;;;2.43;2.00;;;22.40;40.90;;;;;;10557659;28;20243;-74
2022/06/13 07:55:43;;;;;;;2.53;2.33;;;22.50;41.00;;;;;;10557996;28;20227;-74
2022/06/13 08:00:49;;;;;;;2.60;2.27;;;22.60;40.50;;;;;;10555441;28;20594;-74
2022/06/13 08:05:53;;;;;;;2.20;2.00;;;22.60;40.20;;;;;;10564543;27;20227;-74
2022/06/13 08:11:02;;;;;;;2.43;2.17;;;22.70;40.30;;;;;;10514862;28;20313;-74
2022/06/13 08:16:08;;;;;;;4.03;2.10;;;22.80;39.70;;;;;;10522541;27;20223;-73
2022/06/13 08:21:12;;;;;;;2.10;1.90;;;23.00;39.10;;;;;;10549838;28;20783;-74
2022/06/13 08:26:15;;;;;;;2.10;1.87;;;23.20;39.40;;;;;;10545273;28;20237;-73
2022/06/13 08:31:22;;;;;;;2.20;2.00;;;23.30;39.40;;;;;;10526228;28;20900;-74
2022/06/13 08:36:25;;;;;;;2.50;2.30;;;23.40;38.50;;;;;;10501269;28;20254;-74
2022/06/13 08:41:41;;;;;;;2.13;1.90;;;23.60;38.70;;;;;;10498712;28;20900;-74
2022/06/13 08:47:03;;;;;;;2.73;1.97;;;23.70;38.10;;;;;;10501951;28;20231;-74
2022/06/13 08:52:25;;;;;;;3.87;2.00;;;23.90;36.60;;;;;;10542128;28;20230;-73
2022/06/13 08:57:34;;;;;;;3.37;2.70;;;24.00;37.20;;;;;;10547560;28;20227;-73
2022/06/13 09:02:46;;;;;;;2.70;2.50;;;24.10;36.40;;;;;;10502590;27;20219;-74
2022/06/13 09:07:53;;;;;;;3.97;2.33;;;24.20;36.50;;;;;;10494705;28;20605;-74
2022/06/13 09:13:01;;;;;;;2.80;2.00;;;24.40;37.90;;;;;;10505410;28;20235;-74
2022/06/13 09:18:14;;;;;;;7.73;2.87;;;24.50;37.00;;;;;;10496882;28;20219;-75
2022/06/13 09:23:22;;;;;;;2.87;2.30;;;24.50;34.20;;;;;;10508795;28;20670;-74
2022/06/13 09:28:31;;;;;;;3.03;2.50;;;24.50;35.30;;;;;;10511258;28;20226;-75
2022/06/13 09:33:40;;;;;;;3.90;2.40;;;24.50;33.90;;;;;;10506198;28;20244;-73
2022/06/13 09:38:48;;;;;;;2.60;2.40;;;24.60;34.60;;;;;;10513390;28;20243;-73
2022/06/13 09:44:05;;;;;;;3.20;2.43;;;24.70;34.50;;;;;;10548694;27;20227;-74
2022/06/13 09:49:19;;;;;;;3.60;2.43;;;24.70;32.30;;;;;;10552997;27;20313;-74
2022/06/13 09:54:32;;;;;;;3.03;2.50;;;24.70;31.60;;;;;;10553740;28;20231;-74
2022/06/13 09:59:48;;;;;;;3.63;2.20;;;24.70;31.60;;;;;;10529856;28;20315;-73
2022/06/13 10:05:01;;;;;;;3.63;2.20;;;24.70;31.50;;;;;;10554919;27;20279;-72
2022/06/13 10:10:11;;;;;;;3.43;2.10;;;24.70;30.90;;;;;;10518544;28;20223;-72
2022/06/13 10:15:26;;;;;;;2.87;2.10;;;24.80;31.70;;;;;;10519279;28;20656;-74
2022/06/13 10:20:38;;;;;;;3.60;2.23;;;24.80;30.30;;;;;;10549518;28;20219;-74
2022/06/13 10:25:57;;;;;;;2.77;1.80;;;24.90;30.00;;;;;;10560897;27;20249;-73
2022/06/13 10:31:12;;;;;;;3.70;1.73;;;25.00;30.00;;;;;;10547916;28;20237;-74
2022/06/13 10:36:23;;;;;;;6.70;2.10;;;25.10;30.50;;;;;;10506780;28;20703;-75
2022/06/13 10:41:28;;;;;;;3.87;2.03;;;25.20;28.80;;;;;;10511970;28;20803;-74
2022/06/13 10:46:31;;;;;;;3.07;2.03;;;25.40;28.90;;;;;;10506071;28;20232;-74
2022/06/13 10:51:37;;;;;;;4.13;1.80;;;25.40;28.90;;;;;;10521985;28;20300;-73
2022/06/13 10:56:43;;;;;;;2.77;1.90;;;25.30;28.80;;;;;;10535468;28;20235;-74
2022/06/13 11:01:54;;;;;;;1.83;1.70;;;25.40;29.80;;;;;;10562847;27;20223;-74
2022/06/13 11:07:03;;;;;;;3.10;1.67;;;25.60;29.00;;;;;;10565734;28;20268;-74
2022/06/13 11:12:18;;;;;;;2.63;2.20;;;25.70;28.40;;;;;;10551022;28;20230;-74
2022/06/13 11:22:56;;;;;;;3.53;1.80;;;25.90;28.40;;;;;;10563174;28;20220;-74
2022/06/13 11:28:09;;;;;;;3.27;1.70;;;25.90;27.90;;;;;;10565371;28;20698;-74
2022/06/13 11:33:31;;;;;;;2.13;1.80;;;25.90;27.20;;;;;;10542985;28;21461;-73
2022/06/13 11:38:37;;;;;;;3.63;1.90;;;26.00;26.30;;;;;;10514585;28;20226;-74
2022/06/13 11:43:46;;;;;;;3.87;2.30;;;26.00;26.80;;;;;;10514765;28;20231;-73
2022/06/13 11:48:51;;;;;;;2.47;1.83;;;26.10;26.90;;;;;;10509179;28;20223;-73
2022/06/13 11:53:58;;;;;;;3.03;2.03;;;26.10;26.90;;;;;;10514100;28;20231;-73
2022/06/13 11:59:05;;;;;;;2.63;1.80;;;26.10;25.30;;;;;;10515154;28;20219;-72
2022/06/13 12:04:18;;;;;;;3.43;1.90;;;26.10;26.00;;;;;;10537641;28;20238;-73
2022/06/13 12:09:30;;;;;;;3.17;1.70;;;26.10;24.40;;;;;;10553437;28;20230;-75
2022/06/13 12:14:37;;;;;;;2.37;1.90;;;26.10;25.60;;;;;;10554872;27;20227;-74
2022/06/13 12:19:46;;;;;;;1.90;1.80;;;26.30;25.10;;;;;;10547126;28;20783;-73
2022/06/13 12:25:04;;;;;;;3.40;1.80;;;26.30;24.50;;;;;;10547728;27;20279;-73
2022/06/13 12:30:40;;;;;;;2.00;1.50;;;26.30;24.00;;;;;;10497021;28;20296;-75
2022/06/13 12:36:07;;;;;;;3.03;2.00;;;26.20;23.60;;;;;;10497954;28;20235;-72
2022/06/13 12:41:24;;;;;;;2.37;1.60;;;26.20;23.20;;;;;;10562071;27;20329;-73
2022/06/13 12:46:43;;;;;;;3.07;1.70;;;26.30;24.30;;;;;;10540939;27;20227;-74
2022/06/13 12:51:56;;;;;;;2.27;1.50;;;26.30;23.40;;;;;;10537792;28;20231;-74
2022/06/13 12:57:09;;;;;;;2.27;1.97;;;26.30;21.40;;;;;;10551334;27;20235;-74
2022/06/13 13:02:25;;;;;;;2.63;1.70;;;26.30;22.90;;;;;;10553688;27;20222;-73
2022/06/13 13:07:36;;;;;;;1.80;1.60;;;26.20;22.70;;;;;;10548676;28;20222;-74
2022/06/13 13:13:15;;;;;;;1.80;1.60;;;26.20;22.50;;;;;;10548477;28;20228;-73
2022/06/13 13:18:35;;;;;;;2.67;1.53;;;26.20;22.80;;;;;;10497526;28;20832;-74
2022/06/13 13:23:45;;;;;;;1.93;1.60;;;26.20;22.60;;;;;;10505174;28;20219;-73
2022/06/13 13:29:00;;;;;;;2.47;1.70;;;26.20;22.40;;;;;;10514235;28;20755;-73
2022/06/13 13:34:25;;;;;;;2.77;1.50;;;26.30;21.10;;;;;;10507418;28;20221;-73
2022/06/13 13:39:38;;;;;;;1.90;1.50;;;26.20;21.60;;;;;;10509185;28;20817;-74
2022/06/13 13:44:44;;;;;;;2.90;1.60;;;26.20;21.60;;;;;;10513399;28;20248;-74
2022/06/13 13:49:54;;;;;;;2.87;1.40;;;26.30;22.20;;;;;;10507409;28;20247;-73
2022/06/13 13:55:01;;;;;;;1.80;1.63;;;26.30;21.20;;;;;;10514045;28;20579;-73
2022/06/13 14:00:14;;;;;;;1.83;1.30;;;26.40;21.60;;;;;;10509223;28;20308;-73
2022/06/13 14:05:29;;;;;;;2.47;1.73;;;26.40;20.50;;;;;;10504684;28;20236;-73
2022/06/13 14:10:34;;;;;;;3.07;1.40;;;26.40;19.20;;;;;;10546885;28;20236;-72
2022/06/13 14:16:00;;;;;;;2.17;1.60;;;26.30;21.20;;;;;;10558810;27;20227;-73
2022/06/13 14:21:09;;;;;;;4.50;1.60;;;26.30;21.00;;;;;;10544849;27;21163;-73
2022/06/13 14:26:21;;;;;;;2.37;1.43;;;26.30;21.10;;;;;;10547544;28;20242;-73
2022/06/13 14:31:24;;;;;;;1.70;1.60;;;26.30;19.20;;;;;;10535622;28;20790;-73
2022/06/13 14:37:11;;;;;;;2.40;1.40;;;26.20;21.20;;;;;;10536851;28;20234;-74
2022/06/13 14:42:36;;;;;;;1.70;1.40;;;26.10;18.70;;;;;;10533945;27;20668;-74
2022/06/13 14:48:15;;;;;;;1.70;1.30;;;26.00;19.90;;;;;;10540089;27;21212;-73
2022/06/13 14:53:43;;;;;;;1.80;1.50;;;25.90;19.00;;;;;;10529627;27;20971;-73
2022/06/13 14:58:58;;;;;;;1.40;1.30;;;25.80;18.90;;;;;;10528831;28;20223;-73
2022/06/13 15:04:13;;;;;;;2.73;1.23;;;25.70;18.90;;;;;;10495837;28;20229;-73
2022/06/13 15:09:23;;;;;;;1.63;1.17;;;25.70;19.30;;;;;;10491302;28;20218;-73
2022/06/13 15:14:30;;;;;;;2.83;1.40;;;25.80;19.80;;;;;;10522336;27;20234;-73
2022/06/13 15:19:37;;;;;;;2.20;1.70;;;25.80;19.90;;;;;;10539733;28;20218;-73
2022/06/13 15:24:52;;;;;;;2.00;1.40;;;25.80;20.40;;;;;;10538695;28;20281;-73
2022/06/13 15:30:33;;;;;;;1.80;1.50;;;25.90;19.00;;;;;;10540935;28;20664;-73
2022/06/13 15:35:55;;;;;;;3.03;1.63;;;25.90;19.00;;;;;;10539730;28;20215;-73
2022/06/13 15:41:02;;;;;;;2.20;1.47;;;25.90;18.20;;;;;;10547627;27;20227;-72
2022/06/13 15:46:07;;;;;;;1.90;1.60;;;25.80;19.00;;;;;;10540977;28;20254;-74
2022/06/13 15:51:16;;;;;;;1.73;1.60;;;25.80;20.00;;;;;;10546496;27;20223;-74
2022/06/13 15:56:36;;;;;;;1.40;1.30;;;25.80;19.40;;;;;;10544875;27;20235;-74
2022/06/13 16:01:46;;;;;;;2.53;1.40;;;25.70;18.90;;;;;;10553942;27;20219;-73
2022/06/13 16:06:52;;;;;;;2.17;1.53;;;25.70;18.90;;;;;;10543030;27;20230;-72
2022/06/13 16:11:59;;;;;;;2.17;1.60;;;25.70;20.00;;;;;;10540367;28;20230;-73
2022/06/13 16:17:06;;;;;;;1.50;1.40;;;25.50;19.20;;;;;;10541502;27;20718;-72
2022/06/13 16:22:12;;;;;;;1.53;1.40;;;25.40;20.10;;;;;;10536349;27;20223;-73
2022/06/13 16:27:20;;;;;;;1.43;1.33;;;25.40;20.40;;;;;;10541559;28;20223;-73
2022/06/13 16:32:26;;;;;;;3.07;1.70;;;25.40;20.00;;;;;;10544434;28;20242;-73
2022/06/13 16:37:55;;;;;;;1.73;1.40;;;25.40;19.90;;;;;;10537888;28;20223;-73
2022/06/13 16:42:59;;;;;;;2.23;1.60;;;25.40;18.90;;;;;;10538938;27;20242;-73
2022/06/13 16:48:14;;;;;;;1.63;1.40;;;25.30;19.60;;;;;;10504289;28;20231;-73
2022/06/13 16:53:18;;;;;;;2.20;1.47;;;25.30;19.40;;;;;;10525532;28;20227;-73
2022/06/13 16:58:27;;;;;;;1.40;1.30;;;25.20;19.80;;;;;;10521508;28;20239;-73
2022/06/13 17:03:59;;;;;;;2.20;1.70;;;25.20;19.90;;;;;;10542574;28;20227;-73
2022/06/13 17:09:16;;;;;;;1.40;1.40;;;25.20;18.60;;;;;;10539699;27;20712;-73
2022/06/13 17:14:47;;;;;;;1.73;1.63;;;25.20;19.10;;;;;;10540717;27;20223;-72
2022/06/13 17:19:53;;;;;;;1.70;1.60;;;25.10;19.00;;;;;;10542518;28;20235;-73
2022/06/13 17:24:57;;;;;;;1.87;1.30;;;25.10;18.90;;;;;;10538487;28;20250;-73
2022/06/13 17:35:23;;;;;;;4.67;1.70;;;25.10;19.10;;;;;;10517773;28;20227;-73
2022/06/13 17:40:28;;;;;;;2.70;1.60;;;25.20;19.30;;;;;;10527407;28;21004;-74
2022/06/13 17:45:33;;;;;;;1.70;1.60;;;25.10;19.70;;;;;;10545660;28;20226;-74
2022/06/13 17:50:36;;;;;;;2.23;1.70;;;25.20;19.00;;;;;;10541412;28;20224;-74
2022/06/13 17:55:41;;;;;;;2.07;1.67;;;25.20;19.30;;;;;;10546748;27;20227;-74
2022/06/13 18:00:48;;;;;;;2.43;1.80;;;25.10;19.10;;;;;;10543604;28;20821;-74
2022/06/13 18:05:51;;;;;;;1.83;1.70;;;25.10;19.00;;;;;;10541345;28;20233;-74
2022/06/13 18:10:58;;;;;;;2.40;1.80;;;25.20;19.70;;;;;;10546468;28;20323;-75
2022/06/13 18:16:03;;;;;;;3.27;1.80;;;25.20;19.50;;;;;;10504673;28;20219;-74
2022/06/13 18:21:07;;;;;;;2.13;1.50;;;25.10;19.00;;;;;;10526544;28;20345;-77
2022/06/13 18:26:13;;;;;;;2.23;1.70;;;25.00;19.10;;;;;;10544260;28;20245;-75
2022/06/13 18:31:19;;;;;;;2.73;1.47;;;24.90;19.30;;;;;;10543555;28;23381;-74
2022/06/13 18:36:22;;;;;;;1.70;1.50;;;24.80;19.70;;;;;;10512930;28;20676;-74
2022/06/13 18:41:26;;;;;;;2.10;1.60;;;24.80;20.00;;;;;;10531159;28;20226;-75
2022/06/13 18:46:35;;;;;;;1.50;1.40;;;24.80;20.20;;;;;;10550597;27;20250;-74
2022/06/13 18:51:39;;;;;;;2.53;1.70;;;24.80;20.00;;;;;;10544783;28;21119;-75
2022/06/13 18:56:42;;;;;;;1.80;1.40;;;24.90;20.10;;;;;;10541712;28;20715;-74
2022/06/13 19:01:46;;;;;;;1.57;1.47;;;24.80;20.30;;;;;;10545319;28;20253;-74
2022/06/13 19:06:54;;;;;;;4.27;1.90;;;24.90;20.50;;;;;;10543024;28;20741;-74
2022/06/13 19:11:58;;;;;;;1.67;1.57;;;24.90;20.50;;;;;;10547564;28;20310;-74
2022/06/13 19:17:05;;;;;;;1.63;1.53;;;24.80;20.40;;;;;;10554000;27;20218;-74
2022/06/13 19:22:10;;;;;;;2.77;1.80;;;24.80;20.60;;;;;;10502501;28;20219;-74
2022/06/13 19:27:14;;;;;;;1.73;1.60;;;24.70;20.90;;;;;;10500944;28;20260;-75
2022/06/13 19:32:23;;;;;;;2.67;1.70;;;24.70;21.10;;;;;;10495669;28;20250;-74
2022/06/13 19:37:27;;;;;;;2.00;1.43;;;24.60;21.30;;;;;;10494260;28;20610;-74
2022/06/13 19:42:32;;;;;;;2.20;1.80;;;24.50;21.30;;;;;;10521253;27;20219;-74
2022/06/13 19:47:39;;;;;;;1.87;1.40;;;24.30;21.80;;;;;;10543934;27;20228;-74
2022/06/13 19:53:06;;;;;;;3.77;3.33;;;24.10;22.00;;;;;;10517681;28;20951;-74
2022/06/13 19:58:11;;;;;;;2.93;2.73;;;23.90;21.90;;;;;;10512885;28;20231;-74
2022/06/13 20:03:17;;;;;;;2.80;2.60;;;23.70;22.10;;;;;;10539340;27;20238;-74
2022/06/13 20:08:26;;;;;;;3.03;2.73;;;23.50;22.40;;;;;;10541263;28;20243;-74
2022/06/13 20:13:33;;;;;;;2.20;1.90;;;23.40;22.10;;;;;;10539953;27;20235;-74
2022/06/13 20:18:42;;;;;;;2.30;2.10;;;23.20;22.30;;;;;;10541909;28;20228;-73
2022/06/13 20:23:45;;;;;;;2.27;1.83;;;23.10;22.70;;;;;;10543363;28;20223;-74
2022/06/13 20:28:49;;;;;;;1.70;1.60;;;22.90;22.60;;;;;;10538131;28;20223;-74
2022/06/13 20:33:57;;;;;;;2.23;1.50;;;22.80;22.80;;;;;;10538871;27;20233;-74
2022/06/13 20:39:05;;;;;;;2.33;1.60;;;22.70;23.40;;;;;;10540146;28;20215;-74
2022/06/13 20:44:11;;;;;;;4.50;2.10;;;22.50;23.30;;;;;;10538266;27;20309;-74
2022/06/13 20:49:21;;;;;;;5.90;2.50;;;22.30;23.40;;;;;;10540388;28;20235;-74
2022/06/13 20:54:24;;;;;;;2.10;1.87;;;22.10;23.90;;;;;;10540756;28;20227;-74
2022/06/13 20:59:29;;;;;;;2.47;2.00;;;21.80;23.40;;;;;;10540362;28;20227;-74
2022/06/13 21:04:35;;;;;;;2.50;2.30;;;21.70;23.90;;;;;;10540930;28;20227;-74
2022/06/13 21:14:59;;;;;;;2.40;2.20;;;21.50;24.20;;;;;;10526559;28;20235;-74
2022/06/13 21:20:05;;;;;;;2.47;2.10;;;21.40;24.20;;;;;;10494931;28;20829;-74
2022/06/13 21:25:10;;;;;;;1.80;1.70;;;21.30;24.80;;;;;;10499222;28;20791;-74
2022/06/13 21:30:15;;;;;;;3.07;1.80;;;21.00;24.80;;;;;;10525933;28;20791;-74
2022/06/13 21:35:21;;;;;;;2.60;2.03;;;20.90;25.00;;;;;;10534792;28;20231;-73
2022/06/13 21:40:24;;;;;;;3.07;2.10;;;20.80;25.70;;;;;;10523707;28;20243;-74
2022/06/13 21:45:28;;;;;;;2.00;1.90;;;20.70;25.10;;;;;;10527445;27;21075;-74
2022/06/13 21:50:35;;;;;;;2.00;1.90;;;20.60;25.70;;;;;;10536473;27;20230;-74
2022/06/13 21:55:39;;;;;;;2.30;1.87;;;20.50;25.80;;;;;;10541666;27;20235;-74
2022/06/13 22:00:43;;;;;;;3.30;2.13;;;20.40;25.60;;;;;;10541469;27;20219;-74
2022/06/13 22:05:48;;;;;;;3.50;1.97;;;20.30;25.50;;;;;;10537451;28;20231;-74
2022/06/13 22:10:52;;;;;;;2.20;1.90;;;20.20;26.10;;;;;;10539186;27;20224;-74
2022/06/13 22:15:55;;;;;;;2.43;2.23;;;20.10;25.80;;;;;;10540212;27;20813;-74
2022/06/13 22:21:00;;;;;;;1.83;1.67;;;19.90;26.00;;;;;;10539638;28;20227;-74
2022/06/13 22:26:06;;;;;;;2.10;1.83;;;19.80;26.40;;;;;;10543158;27;20782;-74
2022/06/13 22:31:09;;;;;;;2.20;2.00;;;19.70;26.60;;;;;;10541033;28;20230;-74
2022/06/13 22:36:14;;;;;;;2.90;1.83;;;19.70;26.50;;;;;;10536568;28;20358;-74
2022/06/13 22:41:17;;;;;;;3.30;1.97;;;19.60;27.00;;;;;;10534802;28;20231;-74
2022/06/13 22:51:40;;;;;;;2.00;1.70;;;19.60;26.80;;;;;;10550117;27;20254;-74
2022/06/13 22:56:43;;;;;;;2.10;1.90;;;19.50;27.40;;;;;;10549418;28;20222;-74
2022/06/13 23:01:46;;;;;;;2.37;1.70;;;19.40;26.90;;;;;;10549168;28;20230;-74
2022/06/13 23:06:51;;;;;;;1.83;1.73;;;19.40;27.00;;;;;;10545031;27;20835;-74
2022/06/13 23:11:57;;;;;;;2.93;2.20;;;19.40;27.30;;;;;;10553324;28;20977;-74
2022/06/13 23:17:02;;;;;;;3.20;1.83;;;19.30;27.10;;;;;;10553501;27;20229;-74
2022/06/13 23:22:07;;;;;;;2.07;1.83;;;19.20;27.10;;;;;;10543853;28;20225;-74
2022/06/13 23:27:11;;;;;;;2.23;2.00;;;19.20;27.60;;;;;;10546593;27;21107;-73
2022/06/13 23:32:14;;;;;;;2.40;2.20;;;19.20;27.30;;;;;;10548661;27;20228;-74
2022/06/13 23:37:19;;;;;;;2.83;2.40;;;19.10;27.40;;;;;;10551377;28;20324;-74
2022/06/13 23:42:23;;;;;;;2.03;1.83;;;19.10;27.80;;;;;;10551846;27;20584;-74
2022/06/13 23:47:26;;;;;;;3.33;1.87;;;19.00;27.40;;;;;;10548171;27;20240;-74
2022/06/13 23:52:30;;;;;;;2.93;2.00;;;19.00;27.60;;;;;;10549659;27;20231;-74
2022/06/13 23:57:35;;;;;;;3.40;2.10;;;19.00;27.80;;;;;;10544351;28;20278;-74
